Elbow, Canada
Current Conditions -  °F | °C
As of 2:00 AM on Friday 19 Dec 2014 (Local Time) from CYXE Reporting Station
Haze Haze  
Wind Chill:   Ceiling: 300
Heat Index: 18°   Visibility: 3mi
Dew Point: 16°   Wind: 7mph
Humidity: 93%   Direction: 310°NW
Pressure: 29.93"   Gusts: NA
Location:  51.12°N, 106.6°W
Report Text: CYXE 190800Z 31006KT 3SM BR OVC003 M08/M09 A2993 RMK ST8 INTMT -SN SLP170
Loading
Personal Weather Stations






























Interactive Weather Map New forecast layout! Learn more

10-Day Weather Forecast

Advertisements
Track Severe Weather on mobile